Time;durP1;ratioP1;P1;durP2;ratioP2;P2;SDS_P1;SDS_P2;PMS_P1;PMS_P2;Temp;Humidity;BMP_temperature;BMP_pressure;BME280_temperature;BME280_humidity;BME280_pressure;Samples;Min_cycle;Max_cycle;Signal;HPM_P1;HPM_P2
2023/08/18 00:01:46;;;;;;;4.78;2.80;;;21.20;99.90;21.30;100766.00;;;;4933676;28;108229;-67
2023/08/18 00:04:11;;;;;;;4.22;3.65;;;21.20;99.90;21.30;100762.00;;;;4927664;28;122750;-67
2023/08/18 00:06:37;;;;;;;3.53;3.10;;;21.10;99.90;21.20;100755.00;;;;4932297;28;93171;-67
2023/08/18 00:09:04;;;;;;;3.10;2.75;;;21.10;99.90;21.20;100745.00;;;;4933432;28;110262;-67
2023/08/18 00:11:30;;;;;;;3.65;2.63;;;21.00;99.90;21.10;100761.00;;;;4938094;28;93082;-68
2023/08/18 00:13:56;;;;;;;4.95;3.50;;;21.00;99.90;21.10;100758.00;;;;4940673;28;119875;-69
2023/08/18 00:16:21;;;;;;;3.25;2.58;;;21.00;99.90;21.00;100760.00;;;;4938903;28;122015;-67
2023/08/18 00:18:47;;;;;;;2.97;2.67;;;21.00;99.90;21.00;100765.00;;;;4935038;28;92792;-68
2023/08/18 00:21:14;;;;;;;4.35;2.63;;;20.90;99.90;21.00;100752.00;;;;4933103;28;109081;-67
2023/08/18 00:23:40;;;;;;;3.15;2.63;;;20.80;99.90;20.90;100755.00;;;;4934968;28;94383;-67
2023/08/18 00:26:08;;;;;;;7.70;4.57;;;20.80;99.90;20.90;100745.00;;;;4929866;28;93749;-68
2023/08/18 00:28:34;;;;;;;4.70;3.30;;;20.70;99.90;20.90;100749.00;;;;4932973;28;96138;-68
2023/08/18 00:31:00;;;;;;;3.40;3.10;;;20.70;99.90;20.80;100761.00;;;;4935590;28;107094;-68
2023/08/18 00:33:25;;;;;;;3.83;2.78;;;20.70;99.90;20.80;100758.00;;;;4945080;28;93934;-68
2023/08/18 00:35:51;;;;;;;3.40;3.00;;;20.60;99.90;20.70;100761.00;;;;4934961;28;122287;-68
2023/08/18 00:38:19;;;;;;;4.47;3.50;;;20.60;99.90;20.70;100750.00;;;;4933294;28;110058;-68
2023/08/18 00:40:45;;;;;;;3.63;3.17;;;20.60;99.90;20.60;100760.00;;;;4932405;28;109515;-68
2023/08/18 00:43:11;;;;;;;7.57;3.70;;;20.50;99.90;20.60;100744.00;;;;4932296;28;123193;-69
2023/08/18 00:45:37;;;;;;;5.32;4.10;;;20.50;99.90;20.60;100750.00;;;;4934941;28;121864;-68
2023/08/18 00:48:03;;;;;;;7.30;3.17;;;20.50;99.90;20.50;100744.00;;;;4931543;28;110712;-68
2023/08/18 00:50:29;;;;;;;4.40;3.20;;;20.40;99.90;20.50;100745.00;;;;4947372;28;92794;-68
2023/08/18 00:52:59;;;;;;;4.90;3.45;;;20.40;99.90;20.50;100738.00;;;;4946906;28;122969;-68
2023/08/18 00:55:29;;;;;;;5.55;3.72;;;20.40;99.90;20.50;100737.00;;;;4933587;28;93831;-68
2023/08/18 00:57:55;;;;;;;3.70;3.28;;;20.40;99.90;20.50;100740.00;;;;4934748;28;92906;-68
2023/08/18 01:00:23;;;;;;;4.15;3.58;;;20.30;99.90;20.50;100733.00;;;;4946232;28;93173;-68
2023/08/18 01:02:50;;;;;;;4.43;3.85;;;20.30;99.90;20.40;100742.00;;;;4935295;28;93243;-69
2023/08/18 01:05:16;;;;;;;5.50;3.95;;;20.40;99.90;20.40;100736.00;;;;4935120;28;92965;-68
2023/08/18 01:07:42;;;;;;;3.30;2.97;;;20.30;99.90;20.40;100742.00;;;;4934290;28;96362;-68
2023/08/18 01:10:08;;;;;;;4.53;3.60;;;20.30;99.90;20.40;100733.00;;;;4936243;28;109122;-68
2023/08/18 01:12:51;;;;;;;6.40;3.13;;;20.30;99.90;20.40;100739.00;;;;4936915;28;101541;-68
2023/08/18 01:15:24;;;;;;;5.85;3.60;;;20.30;99.90;20.40;100754.00;;;;4949695;28;93621;-67
2023/08/18 01:18:03;;;;;;;4.72;3.95;;;20.20;99.90;20.30;100736.00;;;;4950429;28;93025;-67
2023/08/18 01:20:30;;;;;;;6.03;3.03;;;20.20;99.90;20.30;100741.00;;;;4932993;28;92984;-67
2023/08/18 01:22:56;;;;;;;5.25;4.15;;;20.20;99.90;20.30;100736.00;;;;4934073;28;94318;-67
2023/08/18 01:25:23;;;;;;;4.90;3.80;;;20.20;99.90;20.30;100722.00;;;;4932509;28;93773;-67
2023/08/18 01:27:49;;;;;;;5.65;4.15;;;20.20;99.90;20.30;100719.00;;;;4930072;28;93694;-67
2023/08/18 01:30:16;;;;;;;5.95;3.13;;;20.20;99.90;20.30;100721.00;;;;4944098;28;93977;-67
2023/08/18 01:32:53;;;;;;;5.30;3.38;;;20.20;99.90;20.30;100724.00;;;;4939812;28;93616;-67
2023/08/18 01:35:20;;;;;;;4.32;2.60;;;20.20;99.90;20.30;100722.00;;;;4928923;28;97659;-67
2023/08/18 01:37:47;;;;;;;3.83;3.35;;;20.10;99.90;20.30;100727.00;;;;4914739;28;99367;-67
2023/08/18 01:40:15;;;;;;;4.25;3.20;;;20.10;99.90;20.30;100718.00;;;;4935108;28;93102;-67
2023/08/18 01:42:41;;;;;;;7.03;3.97;;;20.10;99.90;20.20;100721.00;;;;4947316;28;94237;-68
2023/08/18 01:45:11;;;;;;;5.07;3.83;;;20.10;99.90;20.20;100720.00;;;;4929944;28;109752;-68
2023/08/18 01:47:37;;;;;;;4.30;3.40;;;20.10;99.90;20.20;100718.00;;;;4939849;28;93017;-67
2023/08/18 01:50:03;;;;;;;3.92;3.55;;;20.10;99.90;20.10;100720.00;;;;4939131;28;92899;-67
2023/08/18 01:52:29;;;;;;;4.45;3.30;;;20.00;99.90;20.10;100711.00;;;;4936020;28;93136;-67
2023/08/18 01:54:54;;;;;;;3.55;3.17;;;20.00;99.90;20.00;100721.00;;;;4931500;28;121264;-67
2023/08/18 01:57:20;;;;;;;5.32;3.08;;;19.90;99.90;20.00;100719.00;;;;4935203;28;111281;-68
2023/08/18 01:59:45;;;;;;;3.13;2.90;;;19.90;99.90;20.00;100722.00;;;;4929165;28;108427;-68
2023/08/18 02:02:11;;;;;;;5.45;3.78;;;19.90;99.90;20.00;100726.00;;;;4933932;28;103602;-68
2023/08/18 02:04:37;;;;;;;4.45;3.58;;;19.80;99.90;19.90;100726.00;;;;4931679;28;122299;-67
2023/08/18 02:07:02;;;;;;;4.72;3.97;;;19.70;99.90;19.90;100727.00;;;;4943265;28;110259;-67
2023/08/18 02:09:28;;;;;;;3.75;3.38;;;19.80;99.90;19.90;100714.00;;;;4930679;28;109411;-67
2023/08/18 02:11:54;;;;;;;4.72;3.88;;;19.80;99.90;19.90;100715.00;;;;4934194;28;123234;-67
2023/08/18 02:14:19;;;;;;;4.18;3.30;;;19.70;99.90;19.90;100717.00;;;;4931491;28;121648;-67
2023/08/18 02:16:45;;;;;;;2.67;1.92;;;19.70;99.90;19.80;100731.00;;;;4933174;28;110419;-66
2023/08/18 02:19:11;;;;;;;4.93;2.88;;;19.70;99.90;19.80;100722.00;;;;4932320;28;108992;-67
2023/08/18 02:21:37;;;;;;;4.03;2.60;;;19.70;99.90;19.80;100721.00;;;;4931064;28;123127;-67
2023/08/18 02:24:04;;;;;;;3.08;2.55;;;19.60;99.90;19.80;100710.00;;;;4934600;28;93998;-67
2023/08/18 02:26:30;;;;;;;4.45;2.83;;;19.60;99.90;19.70;100713.00;;;;4941352;28;94354;-67
2023/08/18 02:28:55;;;;;;;3.08;2.78;;;19.60;99.90;19.80;100718.00;;;;4930181;28;99177;-68
2023/08/18 02:31:21;;;;;;;3.47;2.40;;;19.60;99.90;19.70;100713.00;;;;4928252;28;121264;-68
2023/08/18 02:33:47;;;;;;;3.40;3.03;;;19.60;99.90;19.70;100714.00;;;;4931500;28;122275;-69
2023/08/18 02:36:30;;;;;;;3.33;2.55;;;19.60;99.90;19.70;100719.00;;;;4933173;28;109291;-68
2023/08/18 02:38:56;;;;;;;5.38;2.97;;;19.60;99.90;19.70;100718.00;;;;4936960;28;92718;-68
2023/08/18 02:41:23;;;;;;;6.70;3.22;;;19.60;99.90;19.70;100715.00;;;;4934782;28;103830;-68
2023/08/18 02:43:49;;;;;;;3.55;2.67;;;19.60;99.90;19.70;100721.00;;;;4936072;28;93174;-68
2023/08/18 02:46:16;;;;;;;4.07;3.08;;;19.60;99.90;19.60;100717.00;;;;4936129;28;110208;-68
2023/08/18 02:48:41;;;;;;;3.90;2.90;;;19.50;99.90;19.60;100718.00;;;;4929910;28;94038;-68
2023/08/18 02:51:09;;;;;;;4.95;3.70;;;19.50;99.90;19.60;100708.00;;;;4934689;28;122911;-67
2023/08/18 02:53:39;;;;;;;4.07;3.25;;;19.50;99.90;19.50;100722.00;;;;4931874;28;92987;-68
2023/08/18 02:56:04;;;;;;;4.95;3.80;;;19.40;99.90;19.50;100718.00;;;;4929274;28;92942;-68
2023/08/18 02:58:31;;;;;;;5.35;3.78;;;19.40;99.90;19.50;100716.00;;;;4931876;28;106514;-67
2023/08/18 03:01:03;;;;;;;4.60;4.03;;;19.40;99.90;19.40;100725.00;;;;4931939;28;94277;-67
2023/08/18 03:03:28;;;;;;;5.13;3.47;;;19.30;99.90;19.40;100725.00;;;;4943409;28;93551;-67
2023/08/18 03:06:00;;;;;;;5.22;3.42;;;19.30;99.90;19.40;100721.00;;;;4931382;28;110456;-68
2023/08/18 03:08:26;;;;;;;4.53;3.25;;;19.20;99.90;19.30;100736.00;;;;4937273;28;93667;-68
2023/08/18 03:11:01;;;;;;;13.38;2.92;;;19.20;99.90;19.30;100730.00;;;;4935752;28;117250;-66
2023/08/18 03:13:28;;;;;;;3.75;3.33;;;19.20;99.90;19.30;100740.00;;;;4937879;28;97032;-67
2023/08/18 03:15:54;;;;;;;4.30;3.67;;;19.20;99.90;19.30;100734.00;;;;4939417;28;92977;-68
2023/08/18 03:18:19;;;;;;;3.10;2.80;;;19.20;99.90;19.30;100738.00;;;;4938722;28;92682;-68
2023/08/18 03:20:48;;;;;;;4.43;2.70;;;19.10;99.90;19.20;100736.00;;;;4932251;28;93679;-68
2023/08/18 03:23:15;;;;;;;6.15;4.07;;;19.10;99.90;19.20;100740.00;;;;4945438;28;92827;-68
2023/08/18 03:25:41;;;;;;;4.45;3.97;;;19.10;99.90;19.20;100735.00;;;;4936781;28;93029;-67
2023/08/18 03:28:07;;;;;;;4.85;4.40;;;19.00;99.90;19.10;100731.00;;;;4933335;28;95450;-68
2023/08/18 03:30:39;;;;;;;4.53;3.15;;;19.00;99.90;19.10;100737.00;;;;4933942;28;92490;-68
2023/08/18 03:33:06;;;;;;;3.90;3.47;;;19.00;99.90;19.00;100739.00;;;;4931655;28;94007;-68
2023/08/18 03:35:35;;;;;;;5.22;3.53;;;18.90;99.90;19.00;100744.00;;;;4936919;28;95703;-68
2023/08/18 03:38:04;;;;;;;5.25;3.58;;;18.90;99.90;18.90;100751.00;;;;4932144;28;95607;-68
2023/08/18 03:40:31;;;;;;;4.65;3.40;;;18.80;99.90;18.90;100754.00;;;;4938281;28;93196;-68
2023/08/18 03:42:56;;;;;;;4.10;3.70;;;18.80;99.90;18.90;100757.00;;;;4932901;28;112135;-68
2023/08/18 03:45:22;;;;;;;6.90;3.95;;;18.80;99.90;18.90;100759.00;;;;4936402;28;105469;-68
2023/08/18 03:47:47;;;;;;;4.78;3.55;;;18.80;99.90;18.90;100759.00;;;;4938519;28;107211;-68
2023/08/18 03:50:13;;;;;;;3.65;3.20;;;18.70;99.90;18.90;100764.00;;;;4936642;28;123148;-68
2023/08/18 03:52:39;;;;;;;4.95;3.67;;;18.70;99.90;18.80;100761.00;;;;4933507;28;92822;-69
2023/08/18 03:55:05;;;;;;;5.85;3.70;;;18.70;99.90;18.80;100755.00;;;;4930821;28;110381;-68
2023/08/18 03:57:31;;;;;;;4.57;3.58;;;18.70;99.90;18.80;100752.00;;;;4935061;28;92975;-68
2023/08/18 03:59:57;;;;;;;5.50;3.63;;;18.70;99.90;18.80;100759.00;;;;4948422;28;121759;-68
2023/08/18 04:02:23;;;;;;;7.15;3.72;;;18.70;99.90;18.80;100759.00;;;;4935029;28;121110;-68
2023/08/18 04:04:49;;;;;;;4.20;3.15;;;18.70;99.90;18.80;100761.00;;;;4935841;28;98637;-69
2023/08/18 04:07:15;;;;;;;4.13;2.85;;;18.60;99.90;18.80;100762.00;;;;4932242;28;94021;-68
2023/08/18 04:09:40;;;;;;;4.35;3.28;;;18.70;99.90;18.70;100759.00;;;;4933960;28;93843;-68
2023/08/18 04:12:06;;;;;;;4.72;3.50;;;18.60;99.90;18.70;100760.00;;;;4932867;28;113232;-68
2023/08/18 04:14:32;;;;;;;3.92;2.83;;;18.60;99.90;18.80;100757.00;;;;4938497;28;92991;-68
2023/08/18 04:16:58;;;;;;;4.82;3.95;;;18.60;99.90;18.80;100763.00;;;;4944398;28;108247;-67
2023/08/18 04:19:24;;;;;;;5.97;3.55;;;18.70;99.90;18.80;100770.00;;;;4946875;28;93589;-68
2023/08/18 04:21:49;;;;;;;4.88;3.53;;;18.60;99.90;18.80;100771.00;;;;4936793;28;93223;-67
2023/08/18 04:24:15;;;;;;;3.97;3.50;;;18.70;99.90;18.80;100768.00;;;;4934914;28;110874;-69
2023/08/18 04:26:41;;;;;;;3.20;2.83;;;18.70;99.90;18.80;100777.00;;;;4930018;28;94040;-68
2023/08/18 04:29:06;;;;;;;4.32;3.70;;;18.70;99.90;18.80;100776.00;;;;4932920;28;94158;-68
2023/08/18 04:31:32;;;;;;;4.63;3.67;;;18.70;99.90;18.80;100778.00;;;;4935560;28;121770;-68
2023/08/18 04:33:58;;;;;;;4.03;2.67;;;18.70;99.90;18.80;100773.00;;;;4935496;28;110777;-68
2023/08/18 04:36:24;;;;;;;5.68;3.67;;;18.70;99.90;18.90;100777.00;;;;4937754;28;109834;-68
2023/08/18 04:38:50;;;;;;;7.82;3.13;;;18.50;99.90;19.00;100781.00;;;;4937252;28;123037;-67
2023/08/18 04:41:16;;;;;;;2.97;2.63;;;18.80;99.90;19.10;100792.00;;;;4934888;28;116547;-67
2023/08/18 04:43:42;;;;;;;5.05;3.20;;;18.90;99.90;19.20;100792.00;;;;4935483;28;92149;-67
2023/08/18 04:46:08;;;;;;;4.28;3.28;;;19.00;99.90;19.30;100798.00;;;;4933903;28;92928;-67
2023/08/18 04:48:34;;;;;;;7.90;3.70;;;19.10;99.90;19.50;100794.00;;;;4928946;28;93014;-67
2023/08/18 04:51:00;;;;;;;5.28;3.80;;;19.20;99.90;19.50;100797.00;;;;4933919;28;118600;-67
2023/08/18 04:53:25;;;;;;;4.25;3.35;;;19.30;99.90;19.60;100788.00;;;;4934461;28;93153;-67
2023/08/18 04:55:51;;;;;;;5.28;3.35;;;19.40;99.90;19.70;100789.00;;;;4948084;28;104125;-68
2023/08/18 04:58:17;;;;;;;5.75;3.80;;;19.50;99.90;19.80;100788.00;;;;4928882;28;123065;-68
2023/08/18 05:00:43;;;;;;;3.65;3.03;;;19.60;99.90;19.80;100784.00;;;;4937182;28;93638;-68
2023/08/18 05:03:09;;;;;;;4.07;2.78;;;19.60;99.90;19.90;100784.00;;;;4938070;28;92850;-68
2023/08/18 05:05:45;;;;;;;4.93;3.45;;;19.70;99.90;19.90;100788.00;;;;4932862;28;93077;-68
2023/08/18 05:08:10;;;;;;;3.35;2.70;;;19.70;99.90;20.00;100785.00;;;;4916849;28;98806;-68
2023/08/18 05:10:36;;;;;;;4.07;3.15;;;19.80;99.90;20.10;100789.00;;;;4935405;28;121026;-68
2023/08/18 05:13:02;;;;;;;5.70;4.05;;;19.90;99.90;20.10;100791.00;;;;4931940;28;109593;-69
2023/08/18 05:15:27;;;;;;;8.02;4.60;;;19.90;99.90;20.10;100801.00;;;;4942508;28;107304;-68
2023/08/18 05:17:53;;;;;;;4.38;3.80;;;19.90;99.90;20.10;100801.00;;;;4935338;28;122965;-68
2023/08/18 05:20:19;;;;;;;5.05;3.97;;;19.90;99.90;20.10;100787.00;;;;4932491;28;122094;-68
2023/08/18 05:22:44;;;;;;;4.13;3.67;;;19.90;99.90;20.10;100796.00;;;;4933650;28;110392;-68
2023/08/18 05:25:10;;;;;;;6.35;3.70;;;19.90;99.90;20.10;100793.00;;;;4930568;28;108949;-67
2023/08/18 05:27:37;;;;;;;3.78;3.13;;;19.90;99.90;20.20;100784.00;;;;4933973;28;93360;-67
2023/08/18 05:30:04;;;;;;;5.68;4.22;;;20.00;99.90;20.30;100785.00;;;;4934106;28;92936;-67
2023/08/18 05:32:30;;;;;;;5.43;3.85;;;20.00;99.90;20.30;100782.00;;;;4936454;28;92176;-67
2023/08/18 05:34:56;;;;;;;5.60;3.17;;;20.10;99.90;20.40;100778.00;;;;4940735;28;92823;-67
2023/08/18 05:37:25;;;;;;;10.77;4.03;;;20.20;99.90;20.50;100779.00;;;;4932035;28;109937;-67
2023/08/18 05:39:51;;;;;;;6.80;3.97;;;20.20;99.90;20.50;100771.00;;;;4928388;28;94116;-67
2023/08/18 05:42:16;;;;;;;8.20;3.20;;;20.30;99.90;20.60;100782.00;;;;4930779;28;109885;-67
2023/08/18 05:44:42;;;;;;;5.40;4.18;;;20.40;99.90;20.70;100776.00;;;;4927664;28;109360;-67
2023/08/18 05:47:08;;;;;;;3.97;3.55;;;20.40;99.90;20.70;100774.00;;;;4929105;28;94184;-68
2023/08/18 05:49:34;;;;;;;5.82;4.00;;;20.50;99.90;20.80;100774.00;;;;4929401;28;122506;-68
2023/08/18 05:52:00;;;;;;;4.22;3.38;;;20.50;99.90;20.90;100776.00;;;;4941607;28;95661;-68
2023/08/18 05:54:26;;;;;;;5.18;3.55;;;20.60;99.90;20.90;100774.00;;;;4926614;28;92931;-68
2023/08/18 05:56:54;;;;;;;6.30;4.25;;;20.60;99.90;20.90;100779.00;;;;4932158;28;93168;-67
2023/08/18 05:59:20;;;;;;;5.05;3.53;;;20.70;99.90;20.90;100788.00;;;;4928948;28;92912;-67
2023/08/18 06:01:46;;;;;;;5.57;3.97;;;20.70;99.90;21.00;100797.00;;;;4930401;28;109523;-67
2023/08/18 06:04:12;;;;;;;4.63;3.15;;;21.40;99.90;21.10;100788.00;;;;4930372;28;93763;-67
2023/08/18 06:06:37;;;;;;;5.18;4.68;;;20.80;99.90;21.10;100790.00;;;;4923986;28;121919;-66
2023/08/18 06:09:03;;;;;;;5.28;3.72;;;20.90;99.90;21.20;100790.00;;;;4929208;28;122752;-69
2023/08/18 06:11:29;;;;;;;4.30;3.10;;;21.00;99.90;21.20;100788.00;;;;4940081;28;95473;-68
2023/08/18 06:13:55;;;;;;;5.05;4.03;;;21.00;99.90;21.30;100787.00;;;;4929104;28;104479;-67
2023/08/18 06:16:20;;;;;;;4.22;3.72;;;21.10;99.90;21.40;100795.00;;;;4925947;28;121782;-67
2023/08/18 06:18:46;;;;;;;7.45;5.70;;;21.10;99.90;21.40;100789.00;;;;4930579;28;123544;-67
2023/08/18 06:21:12;;;;;;;5.50;4.10;;;21.20;99.90;21.50;100791.00;;;;4931713;28;92372;-67
2023/08/18 06:23:37;;;;;;;6.45;4.78;;;21.30;99.90;21.60;100791.00;;;;4928286;28;93025;-67
2023/08/18 06:26:03;;;;;;;4.85;4.38;;;21.30;99.90;21.60;100793.00;;;;4932887;28;93912;-67
2023/08/18 06:28:29;;;;;;;7.68;5.18;;;21.50;99.90;21.70;100786.00;;;;4924534;28;94965;-67
2023/08/18 06:31:07;;;;;;;7.72;5.82;;;21.40;99.90;21.80;100796.00;;;;4940720;28;93912;-67
2023/08/18 06:33:34;;;;;;;9.63;5.82;;;21.60;99.90;21.90;100793.00;;;;4930052;28;92880;-67
2023/08/18 06:36:01;;;;;;;9.05;5.88;;;21.60;99.90;22.00;100789.00;;;;4928627;28;94219;-67
2023/08/18 06:38:27;;;;;;;10.40;6.22;;;21.70;99.90;22.10;100795.00;;;;4928893;28;94046;-67
2023/08/18 06:40:53;;;;;;;10.30;8.02;;;21.80;99.90;22.10;100795.00;;;;4926072;28;100295;-67
2023/08/18 06:43:19;;;;;;;9.98;7.05;;;21.90;99.90;22.10;100795.00;;;;4927552;28;108420;-69
2023/08/18 06:45:44;;;;;;;12.30;7.78;;;21.90;99.90;22.20;100790.00;;;;4931312;28;114766;-67
2023/08/18 06:48:10;;;;;;;16.55;7.30;;;22.00;99.90;22.20;100791.00;;;;4936836;28;119422;-67
2023/08/18 06:50:36;;;;;;;11.13;7.47;;;22.00;99.90;22.30;100787.00;;;;4929713;28;109740;-67
2023/08/18 06:53:02;;;;;;;11.95;7.78;;;22.00;99.90;22.40;100789.00;;;;4944103;28;94206;-67
2023/08/18 06:55:28;;;;;;;9.80;7.47;;;22.10;99.90;22.50;100790.00;;;;4928488;28;93343;-68
2023/08/18 06:57:54;;;;;;;11.98;7.18;;;22.20;99.90;22.60;100787.00;;;;4926508;28;111128;-67
2023/08/18 07:00:20;;;;;;;16.95;8.57;;;22.30;99.90;22.70;100794.00;;;;4929514;28;93186;-68
2023/08/18 07:02:46;;;;;;;12.02;8.45;;;22.50;99.90;22.80;100792.00;;;;4923152;28;92974;-67
2023/08/18 07:05:12;;;;;;;12.35;7.60;;;22.50;99.90;22.90;100795.00;;;;4929863;28;93071;-66
2023/08/18 07:07:38;;;;;;;11.70;7.15;;;22.60;99.90;23.00;100785.00;;;;4938714;28;93799;-67
2023/08/18 07:10:05;;;;;;;10.43;6.97;;;22.80;99.90;23.00;100789.00;;;;4927413;28;101681;-67
2023/08/18 07:12:32;;;;;;;8.95;7.15;;;22.70;99.90;23.20;100785.00;;;;4924452;28;94522;-67
2023/08/18 07:14:58;;;;;;;11.10;6.78;;;22.90;99.90;23.30;100785.00;;;;4927739;28;93284;-67
2023/08/18 07:17:24;;;;;;;15.60;7.47;;;22.90;99.90;23.50;100787.00;;;;4927411;28;122148;-67
2023/08/18 07:19:49;;;;;;;9.25;6.47;;;23.10;99.90;23.60;100786.00;;;;4925673;28;114121;-67
2023/08/18 07:22:18;;;;;;;10.70;6.72;;;23.30;99.90;23.80;100785.00;;;;4929347;28;109013;-67
2023/08/18 07:24:45;;;;;;;8.18;6.70;;;23.40;99.90;23.90;100783.00;;;;4920331;28;122714;-67
2023/08/18 07:27:11;;;;;;;7.43;5.88;;;23.60;99.90;24.10;100781.00;;;;4940681;28;93585;-67
2023/08/18 07:29:37;;;;;;;7.93;6.13;;;23.80;99.90;24.30;100782.00;;;;4928320;28;93877;-67
2023/08/18 07:32:03;;;;;;;10.23;6.32;;;24.00;99.90;24.50;100794.00;;;;4928794;28;92812;-67
2023/08/18 07:34:29;;;;;;;8.02;6.50;;;24.10;99.90;24.60;100793.00;;;;4924944;28;93198;-67
2023/08/18 07:36:54;;;;;;;7.40;5.85;;;24.30;99.90;24.70;100797.00;;;;4925913;28;93267;-67
2023/08/18 07:39:20;;;;;;;9.80;5.38;;;24.40;99.90;24.80;100805.00;;;;4928942;28;110396;-68
2023/08/18 07:41:46;;;;;;;10.27;5.38;;;24.50;99.90;24.90;100806.00;;;;4930445;28;93823;-67
2023/08/18 07:44:11;;;;;;;5.90;5.15;;;24.60;99.90;25.00;100802.00;;;;4931915;28;123257;-68
2023/08/18 07:46:38;;;;;;;8.35;6.00;;;24.70;99.90;25.00;100805.00;;;;4930600;28;121693;-68
2023/08/18 07:49:04;;;;;;;18.80;6.90;;;24.70;99.90;25.00;100814.00;;;;4927831;28;92949;-68
2023/08/18 07:51:30;;;;;;;7.07;4.88;;;24.70;99.90;24.90;100805.00;;;;4928435;28;108570;-68
2023/08/18 07:53:56;;;;;;;8.90;6.13;;;24.70;99.90;24.90;100805.00;;;;4926175;28;94081;-69
2023/08/18 07:56:26;;;;;;;11.80;6.65;;;24.70;99.90;24.90;100820.00;;;;4925797;28;94875;-68
2023/08/18 07:58:52;;;;;;;7.10;5.13;;;24.60;99.90;25.00;100807.00;;;;4929642;28;108575;-68
2023/08/18 08:01:19;;;;;;;7.78;6.28;;;24.70;99.90;25.00;100809.00;;;;4933335;28;93040;-68
2023/08/18 08:03:44;;;;;;;8.90;6.03;;;24.80;99.90;25.10;100806.00;;;;4940904;28;94772;-68
2023/08/18 08:06:10;;;;;;;9.05;5.15;;;24.80;99.90;25.10;100810.00;;;;4928124;28;122747;-68
2023/08/18 08:08:35;;;;;;;8.35;5.68;;;24.80;99.90;25.10;100811.00;;;;4931256;28;92899;-68
2023/08/18 08:11:01;;;;;;;9.93;6.10;;;24.80;99.90;25.10;100804.00;;;;4933634;28;109116;-68
2023/08/18 08:13:27;;;;;;;9.13;6.03;;;24.90;99.90;25.20;100802.00;;;;4929676;28;122414;-67
2023/08/18 08:15:53;;;;;;;9.02;5.88;;;24.90;99.90;25.20;100809.00;;;;4933306;28;123770;-68
2023/08/18 08:18:18;;;;;;;13.02;5.45;;;24.90;99.90;25.20;100804.00;;;;4932523;28;110634;-66
2023/08/18 08:20:44;;;;;;;8.73;5.50;;;25.00;99.90;25.20;100807.00;;;;4930596;28;93095;-68
2023/08/18 08:23:10;;;;;;;7.65;5.90;;;25.00;99.90;25.30;100803.00;;;;4942289;28;111788;-67
2023/08/18 08:25:40;;;;;;;7.25;4.63;;;25.00;99.90;25.40;100807.00;;;;4932517;28;121465;-67
2023/08/18 08:28:06;;;;;;;6.75;6.10;;;25.10;99.90;25.50;100815.00;;;;4931215;28;92834;-67
2023/08/18 08:30:31;;;;;;;8.10;4.80;;;25.20;99.90;25.50;100821.00;;;;4931120;28;93934;-67
2023/08/18 08:32:57;;;;;;;6.45;5.53;;;25.20;99.90;25.50;100816.00;;;;4932526;28;123825;-67
2023/08/18 08:35:23;;;;;;;8.05;5.43;;;25.20;99.90;25.40;100821.00;;;;4932605;28;120506;-68
2023/08/18 08:37:48;;;;;;;7.50;5.88;;;25.20;99.90;25.40;100821.00;;;;4929821;28;102266;-68
2023/08/18 08:40:20;;;;;;;8.80;5.47;;;25.20;99.90;25.50;100820.00;;;;4926010;28;109491;-68
2023/08/18 08:42:47;;;;;;;9.82;6.30;;;25.20;99.90;25.60;100815.00;;;;4932444;28;93138;-67
2023/08/18 08:45:13;;;;;;;7.25;6.00;;;25.30;99.90;25.70;100827.00;;;;4931482;28;93000;-69
2023/08/18 08:47:40;;;;;;;7.13;4.70;;;25.40;99.90;25.90;100833.00;;;;4934047;28;110433;-68
2023/08/18 08:50:07;;;;;;;7.72;4.93;;;25.60;99.90;26.10;100829.00;;;;4930643;28;92874;-66
2023/08/18 08:52:38;;;;;;;6.13;4.65;;;25.70;99.90;26.30;100829.00;;;;4926376;28;112348;-67
2023/08/18 08:55:06;;;;;;;7.05;5.78;;;25.90;99.90;26.50;100829.00;;;;4928894;28;94693;-67
2023/08/18 08:57:32;;;;;;;9.13;5.47;;;26.10;99.90;26.70;100832.00;;;;4931194;28;93174;-67
2023/08/18 08:59:59;;;;;;;6.63;4.53;;;26.30;99.90;27.00;100826.00;;;;4942876;28;93354;-67
2023/08/18 09:02:25;;;;;;;7.10;4.75;;;26.50;99.90;27.20;100826.00;;;;4927254;28;95439;-68
2023/08/18 09:04:51;;;;;;;11.10;4.50;;;26.80;99.90;27.60;100825.00;;;;4928838;28;115136;-68
2023/08/18 09:07:17;;;;;;;6.38;4.47;;;27.10;99.90;27.90;100819.00;;;;4930070;28;109782;-67
2023/08/18 09:09:43;;;;;;;8.13;5.18;;;27.40;99.90;28.30;100817.00;;;;4931486;28;108874;-68
2023/08/18 09:12:10;;;;;;;9.07;5.03;;;27.70;99.90;28.70;100814.00;;;;4930310;28;92728;-65
2023/08/18 09:14:40;;;;;;;7.80;4.32;;;28.10;99.90;29.10;100816.00;;;;4931374;28;93225;-66
2023/08/18 09:17:06;;;;;;;6.40;4.75;;;28.50;99.90;29.30;100807.00;;;;4927683;28;92834;-68
2023/08/18 09:19:32;;;;;;;7.93;4.25;;;28.80;99.90;29.50;100812.00;;;;4936872;28;104525;-67
2023/08/18 09:22:00;;;;;;;7.35;4.60;;;29.00;99.90;29.60;100810.00;;;;4931623;28;93052;-67
2023/08/18 09:24:29;;;;;;;9.00;5.53;;;29.20;99.90;29.70;100803.00;;;;4929505;28;93281;-67
2023/08/18 09:26:58;;;;;;;9.00;6.65;;;29.30;99.90;30.00;100813.00;;;;4925649;28;93112;-67
2023/08/18 09:29:24;;;;;;;8.48;5.55;;;29.50;99.90;30.20;100814.00;;;;4926312;28;102356;-68
2023/08/18 09:31:50;;;;;;;8.32;5.15;;;29.70;99.90;30.50;100807.00;;;;4929913;28;121357;-67
2023/08/18 09:34:20;;;;;;;8.05;4.75;;;30.00;99.40;30.80;100814.00;;;;4928030;28;122392;-67
2023/08/18 09:36:56;;;;;;;9.02;5.00;;;30.30;98.80;31.10;100819.00;;;;4936406;28;92175;-68
2023/08/18 09:39:22;;;;;;;8.05;4.88;;;30.50;98.30;31.50;100815.00;;;;4928704;28;95016;-67
2023/08/18 09:41:52;;;;;;;6.75;4.53;;;30.90;97.60;31.70;100819.00;;;;4932404;28;95042;-68
2023/08/18 09:44:22;;;;;;;7.22;4.90;;;31.10;96.80;32.00;100827.00;;;;4932785;28;93785;-68
2023/08/18 09:46:56;;;;;;;5.35;4.30;;;31.40;95.90;32.30;100822.00;;;;4930072;28;92808;-68
2023/08/18 09:49:23;;;;;;;4.47;3.92;;;31.70;95.20;32.50;100824.00;;;;4929298;28;93180;-68
2023/08/18 09:51:52;;;;;;;10.85;5.60;;;31.90;94.50;32.40;100822.00;;;;4924783;28;93083;-68
2023/08/18 09:54:20;;;;;;;7.40;4.80;;;32.00;93.20;32.40;100828.00;;;;4927526;28;93895;-67
2023/08/18 09:56:55;;;;;;;7.03;5.55;;;32.00;92.60;32.60;100818.00;;;;4939335;28;99909;-67
2023/08/18 09:59:29;;;;;;;6.20;4.97;;;32.10;92.00;32.80;100825.00;;;;4917963;28;98032;-67
2023/08/18 10:01:55;;;;;;;5.00;3.63;;;32.20;91.40;33.00;100816.00;;;;4930241;28;93364;-67
2023/08/18 10:04:27;;;;;;;5.75;4.60;;;32.40;90.10;33.10;100827.00;;;;4925405;28;120662;-67
2023/08/18 10:06:54;;;;;;;7.90;4.45;;;32.60;88.90;33.40;100823.00;;;;4932234;28;92891;-69
2023/08/18 10:09:22;;;;;;;5.90;4.35;;;32.70;88.90;33.70;100815.00;;;;4912111;28;109594;-70
2023/08/18 10:11:52;;;;;;;6.95;4.55;;;33.00;88.40;33.90;100819.00;;;;4926873;28;93700;-69
2023/08/18 10:14:20;;;;;;;8.13;5.32;;;33.20;86.80;34.20;100813.00;;;;4931589;28;122492;-69
2023/08/18 10:16:48;;;;;;;6.40;4.55;;;33.50;83.80;34.30;100811.00;;;;4947629;28;93114;-71
2023/08/18 10:19:14;;;;;;;6.07;4.25;;;33.60;82.60;34.40;100809.00;;;;4927873;28;92994;-72
2023/08/18 10:21:40;;;;;;;7.38;4.38;;;33.60;80.90;34.50;100817.00;;;;4928545;28;119981;-72
2023/08/18 10:24:06;;;;;;;6.00;4.25;;;33.70;80.00;34.70;100816.00;;;;4943149;28;93022;-71
2023/08/18 10:26:35;;;;;;;6.72;3.83;;;33.90;79.20;34.90;100820.00;;;;4924967;28;92131;-72
2023/08/18 10:29:30;;;;;;;9.90;4.28;;;34.10;78.40;35.10;100807.00;;;;4928711;28;93967;-71
2023/08/18 10:31:56;;;;;;;6.15;3.88;;;34.30;75.90;35.20;100804.00;;;;4914545;28;122006;-72
2023/08/18 10:34:22;;;;;;;4.85;3.70;;;34.40;75.50;35.40;100812.00;;;;4941130;28;94260;-72
2023/08/18 10:36:57;;;;;;;4.05;3.65;;;34.60;74.80;35.70;100818.00;;;;4930186;28;92950;-71
2023/08/18 10:39:24;;;;;;;7.03;4.65;;;34.80;74.20;35.90;100814.00;;;;4926887;28;95508;-71
2023/08/18 10:42:09;;;;;;;6.07;4.28;;;35.00;72.90;36.10;100810.00;;;;4921691;28;93117;-71